sensor_id;sensor_type;location;lat;lon;timestamp;temperature;humidity
30628;DHT22;17394;50.890;4.724;2022-10-16T00:01:33;13.70;99.90
30628;DHT22;17394;50.890;4.724;2022-10-16T00:04:02;13.70;99.90
30628;DHT22;17394;50.890;4.724;2022-10-16T00:06:30;13.70;99.90
30628;DHT22;17394;50.890;4.724;2022-10-16T00:08:59;13.70;99.90
30628;DHT22;17394;50.890;4.724;2022-10-16T00:11:33;13.70;99.90
30628;DHT22;17394;50.890;4.724;2022-10-16T00:14:09;13.70;99.90
30628;DHT22;17394;50.890;4.724;2022-10-16T00:16:36;13.70;99.90
30628;DHT22;17394;50.890;4.724;2022-10-16T00:19:03;13.60;99.90
30628;DHT22;17394;50.890;4.724;2022-10-16T00:21:31;13.60;99.90
30628;DHT22;17394;50.890;4.724;2022-10-16T00:24:06;13.60;99.90
30628;DHT22;17394;50.890;4.724;2022-10-16T00:26:37;13.60;99.90
30628;DHT22;17394;50.890;4.724;2022-10-16T00:29:06;13.60;99.90
30628;DHT22;17394;50.890;4.724;2022-10-16T00:31:34;13.70;99.90
30628;DHT22;17394;50.890;4.724;2022-10-16T00:34:00;13.60;99.90
30628;DHT22;17394;50.890;4.724;2022-10-16T00:36:30;13.60;99.90
30628;DHT22;17394;50.890;4.724;2022-10-16T00:38:58;13.60;99.90
30628;DHT22;17394;50.890;4.724;2022-10-16T00:41:28;13.60;99.90
30628;DHT22;17394;50.890;4.724;2022-10-16T00:44:03;13.60;99.90
30628;DHT22;17394;50.890;4.724;2022-10-16T00:46:43;13.60;99.90
30628;DHT22;17394;50.890;4.724;2022-10-16T00:49:20;13.60;99.90
30628;DHT22;17394;50.890;4.724;2022-10-16T00:51:53;13.60;99.90
30628;DHT22;17394;50.890;4.724;2022-10-16T00:54:32;13.60;99.90
30628;DHT22;17394;50.890;4.724;2022-10-16T00:57:05;13.60;99.90
30628;DHT22;17394;50.890;4.724;2022-10-16T00:59:39;13.50;99.90
30628;DHT22;17394;50.890;4.724;2022-10-16T01:02:10;13.50;99.90
30628;DHT22;17394;50.890;4.724;2022-10-16T01:04:57;13.50;99.90
30628;DHT22;17394;50.890;4.724;2022-10-16T01:07:57;13.50;99.90
30628;DHT22;17394;50.890;4.724;2022-10-16T01:10:40;13.40;99.90
30628;DHT22;17394;50.890;4.724;2022-10-16T01:13:21;13.40;99.90
30628;DHT22;17394;50.890;4.724;2022-10-16T01:16:13;13.40;99.90
30628;DHT22;17394;50.890;4.724;2022-10-16T01:18:57;13.40;99.90
30628;DHT22;17394;50.890;4.724;2022-10-16T01:21:35;13.40;99.90
30628;DHT22;17394;50.890;4.724;2022-10-16T01:24:40;13.40;99.90
30628;DHT22;17394;50.890;4.724;2022-10-16T01:27:10;13.30;99.90
30628;DHT22;17394;50.890;4.724;2022-10-16T01:32:37;13.30;99.90
30628;DHT22;17394;50.890;4.724;2022-10-16T01:35:29;13.30;99.90
30628;DHT22;17394;50.890;4.724;2022-10-16T01:38:03;13.30;99.90
30628;DHT22;17394;50.890;4.724;2022-10-16T01:40:36;13.30;99.90
30628;DHT22;17394;50.890;4.724;2022-10-16T01:43:15;13.30;99.90
30628;DHT22;17394;50.890;4.724;2022-10-16T01:45:45;13.30;99.90
30628;DHT22;17394;50.890;4.724;2022-10-16T01:48:19;13.30;99.90
30628;DHT22;17394;50.890;4.724;2022-10-16T01:51:07;13.30;99.90
30628;DHT22;17394;50.890;4.724;2022-10-16T01:53:36;13.30;99.90
30628;DHT22;17394;50.890;4.724;2022-10-16T01:56:08;13.30;99.90
30628;DHT22;17394;50.890;4.724;2022-10-16T01:58:43;13.30;99.90
30628;DHT22;17394;50.890;4.724;2022-10-16T02:01:16;13.30;99.90
30628;DHT22;17394;50.890;4.724;2022-10-16T02:03:51;13.30;99.90
30628;DHT22;17394;50.890;4.724;2022-10-16T02:06:20;13.30;99.90
30628;DHT22;17394;50.890;4.724;2022-10-16T02:08:47;13.30;99.90
30628;DHT22;17394;50.890;4.724;2022-10-16T02:11:16;13.30;99.90
30628;DHT22;17394;50.890;4.724;2022-10-16T02:14:04;13.30;99.90
30628;DHT22;17394;50.890;4.724;2022-10-16T02:16:45;13.30;99.90
30628;DHT22;17394;50.890;4.724;2022-10-16T02:19:13;13.30;99.90
30628;DHT22;17394;50.890;4.724;2022-10-16T02:25:05;13.30;99.90
30628;DHT22;17394;50.890;4.724;2022-10-16T02:27:57;13.30;99.90
30628;DHT22;17394;50.890;4.724;2022-10-16T02:30:42;13.40;99.90
30628;DHT22;17394;50.890;4.724;2022-10-16T02:33:14;13.40;99.90
30628;DHT22;17394;50.890;4.724;2022-10-16T02:35:45;13.40;99.90
30628;DHT22;17394;50.890;4.724;2022-10-16T02:38:15;13.40;99.90
30628;DHT22;17394;50.890;4.724;2022-10-16T02:40:43;13.40;99.90
30628;DHT22;17394;50.890;4.724;2022-10-16T02:43:10;13.40;99.90
30628;DHT22;17394;50.890;4.724;2022-10-16T02:45:36;13.40;99.90
30628;DHT22;17394;50.890;4.724;2022-10-16T02:48:03;13.40;99.90
30628;DHT22;17394;50.890;4.724;2022-10-16T02:50:29;13.40;99.90
30628;DHT22;17394;50.890;4.724;2022-10-16T02:52:55;13.40;99.90
30628;DHT22;17394;50.890;4.724;2022-10-16T02:55:21;13.40;99.90
30628;DHT22;17394;50.890;4.724;2022-10-16T02:57:48;13.40;99.90
30628;DHT22;17394;50.890;4.724;2022-10-16T03:00:17;13.40;99.90
30628;DHT22;17394;50.890;4.724;2022-10-16T03:02:43;13.30;99.90
30628;DHT22;17394;50.890;4.724;2022-10-16T03:05:10;13.30;99.90
30628;DHT22;17394;50.890;4.724;2022-10-16T03:07:36;13.30;99.90
30628;DHT22;17394;50.890;4.724;2022-10-16T03:10:03;13.30;99.90
30628;DHT22;17394;50.890;4.724;2022-10-16T03:12:30;13.40;99.90
30628;DHT22;17394;50.890;4.724;2022-10-16T03:14:57;13.40;99.90
30628;DHT22;17394;50.890;4.724;2022-10-16T03:17:24;13.40;99.90
30628;DHT22;17394;50.890;4.724;2022-10-16T03:19:51;13.40;99.90
30628;DHT22;17394;50.890;4.724;2022-10-16T03:22:17;13.40;99.90
30628;DHT22;17394;50.890;4.724;2022-10-16T03:24:43;13.40;99.90
30628;DHT22;17394;50.890;4.724;2022-10-16T03:27:09;13.40;99.90
30628;DHT22;17394;50.890;4.724;2022-10-16T03:29:35;13.40;99.90
30628;DHT22;17394;50.890;4.724;2022-10-16T03:32:02;13.40;99.90
30628;DHT22;17394;50.890;4.724;2022-10-16T03:34:28;13.40;99.90
30628;DHT22;17394;50.890;4.724;2022-10-16T03:36:55;13.40;99.90
30628;DHT22;17394;50.890;4.724;2022-10-16T03:39:21;13.40;99.90
30628;DHT22;17394;50.890;4.724;2022-10-16T03:41:47;13.40;99.90
30628;DHT22;17394;50.890;4.724;2022-10-16T03:44:13;13.40;99.90
30628;DHT22;17394;50.890;4.724;2022-10-16T03:46:40;13.40;99.90
30628;DHT22;17394;50.890;4.724;2022-10-16T03:49:06;13.40;99.90
30628;DHT22;17394;50.890;4.724;2022-10-16T03:51:32;13.40;99.90
30628;DHT22;17394;50.890;4.724;2022-10-16T03:53:58;13.40;99.90
30628;DHT22;17394;50.890;4.724;2022-10-16T03:56:24;13.40;99.90
30628;DHT22;17394;50.890;4.724;2022-10-16T03:58:50;13.40;99.90
30628;DHT22;17394;50.890;4.724;2022-10-16T04:01:16;13.40;99.90
30628;DHT22;17394;50.890;4.724;2022-10-16T04:03:42;13.40;99.90
30628;DHT22;17394;50.890;4.724;2022-10-16T04:06:09;13.40;99.90
30628;DHT22;17394;50.890;4.724;2022-10-16T04:08:35;13.40;99.90
30628;DHT22;17394;50.890;4.724;2022-10-16T04:11:03;13.40;99.90
30628;DHT22;17394;50.890;4.724;2022-10-16T04:13:29;13.50;99.90
30628;DHT22;17394;50.890;4.724;2022-10-16T04:15:55;13.40;99.90
30628;DHT22;17394;50.890;4.724;2022-10-16T04:18:22;13.40;99.90
30628;DHT22;17394;50.890;4.724;2022-10-16T04:20:48;13.40;99.90
30628;DHT22;17394;50.890;4.724;2022-10-16T04:23:14;13.40;99.90
30628;DHT22;17394;50.890;4.724;2022-10-16T04:25:40;13.40;99.90
30628;DHT22;17394;50.890;4.724;2022-10-16T04:28:06;13.30;99.90
30628;DHT22;17394;50.890;4.724;2022-10-16T04:30:33;13.30;99.90
30628;DHT22;17394;50.890;4.724;2022-10-16T04:32:59;13.30;99.90
30628;DHT22;17394;50.890;4.724;2022-10-16T04:35:25;13.30;99.90
30628;DHT22;17394;50.890;4.724;2022-10-16T04:37:52;13.30;99.90
30628;DHT22;17394;50.890;4.724;2022-10-16T04:40:18;13.30;99.90
30628;DHT22;17394;50.890;4.724;2022-10-16T04:42:44;13.30;99.90
30628;DHT22;17394;50.890;4.724;2022-10-16T04:45:10;13.40;99.90
30628;DHT22;17394;50.890;4.724;2022-10-16T04:47:37;13.40;99.90
30628;DHT22;17394;50.890;4.724;2022-10-16T04:50:03;13.40;99.90
30628;DHT22;17394;50.890;4.724;2022-10-16T04:52:30;13.30;99.90
30628;DHT22;17394;50.890;4.724;2022-10-16T04:54:58;13.30;99.90
30628;DHT22;17394;50.890;4.724;2022-10-16T04:57:28;13.30;99.90
30628;DHT22;17394;50.890;4.724;2022-10-16T04:59:54;13.30;99.90
30628;DHT22;17394;50.890;4.724;2022-10-16T05:02:20;13.30;99.90
30628;DHT22;17394;50.890;4.724;2022-10-16T05:04:46;13.30;99.90
30628;DHT22;17394;50.890;4.724;2022-10-16T05:07:12;13.30;99.90
30628;DHT22;17394;50.890;4.724;2022-10-16T05:09:38;13.30;99.90
30628;DHT22;17394;50.890;4.724;2022-10-16T05:12:04;13.30;99.90
30628;DHT22;17394;50.890;4.724;2022-10-16T05:14:30;13.20;99.90
30628;DHT22;17394;50.890;4.724;2022-10-16T05:16:57;13.20;99.90
30628;DHT22;17394;50.890;4.724;2022-10-16T05:19:23;13.30;99.90
30628;DHT22;17394;50.890;4.724;2022-10-16T05:21:49;13.20;99.90
30628;DHT22;17394;50.890;4.724;2022-10-16T05:24:15;13.20;99.90
30628;DHT22;17394;50.890;4.724;2022-10-16T05:26:42;13.20;99.90
30628;DHT22;17394;50.890;4.724;2022-10-16T05:29:09;13.20;99.90
30628;DHT22;17394;50.890;4.724;2022-10-16T05:31:36;13.20;99.90
30628;DHT22;17394;50.890;4.724;2022-10-16T05:34:02;13.20;99.90
30628;DHT22;17394;50.890;4.724;2022-10-16T05:36:28;13.20;99.90
30628;DHT22;17394;50.890;4.724;2022-10-16T05:38:55;13.20;99.90
30628;DHT22;17394;50.890;4.724;2022-10-16T05:41:21;13.20;99.90
30628;DHT22;17394;50.890;4.724;2022-10-16T05:43:49;13.10;99.90
30628;DHT22;17394;50.890;4.724;2022-10-16T05:46:16;13.10;99.90
30628;DHT22;17394;50.890;4.724;2022-10-16T05:48:42;13.10;99.90
30628;DHT22;17394;50.890;4.724;2022-10-16T05:51:12;13.10;99.90
30628;DHT22;17394;50.890;4.724;2022-10-16T05:53:40;13.00;99.90
30628;DHT22;17394;50.890;4.724;2022-10-16T05:56:10;13.00;99.90
30628;DHT22;17394;50.890;4.724;2022-10-16T05:58:38;13.00;99.90
30628;DHT22;17394;50.890;4.724;2022-10-16T06:01:19;13.00;99.90
30628;DHT22;17394;50.890;4.724;2022-10-16T06:03:46;13.00;99.90
30628;DHT22;17394;50.890;4.724;2022-10-16T06:06:17;13.00;99.90
30628;DHT22;17394;50.890;4.724;2022-10-16T06:08:46;13.00;99.90
30628;DHT22;17394;50.890;4.724;2022-10-16T06:11:25;13.00;99.90
30628;DHT22;17394;50.890;4.724;2022-10-16T06:13:55;13.00;99.90
30628;DHT22;17394;50.890;4.724;2022-10-16T06:16:27;13.00;99.90
30628;DHT22;17394;50.890;4.724;2022-10-16T06:18:55;13.00;99.90
30628;DHT22;17394;50.890;4.724;2022-10-16T06:21:28;13.00;99.90
30628;DHT22;17394;50.890;4.724;2022-10-16T06:23:56;13.00;99.90
30628;DHT22;17394;50.890;4.724;2022-10-16T06:26:26;13.00;99.90
30628;DHT22;17394;50.890;4.724;2022-10-16T06:28:58;13.10;99.90
30628;DHT22;17394;50.890;4.724;2022-10-16T06:31:27;13.00;99.90
30628;DHT22;17394;50.890;4.724;2022-10-16T06:33:57;13.00;99.90
30628;DHT22;17394;50.890;4.724;2022-10-16T06:36:24;13.00;99.90
30628;DHT22;17394;50.890;4.724;2022-10-16T06:38:51;13.00;99.90
30628;DHT22;17394;50.890;4.724;2022-10-16T06:41:21;13.00;99.90
30628;DHT22;17394;50.890;4.724;2022-10-16T06:43:47;13.10;99.90
30628;DHT22;17394;50.890;4.724;2022-10-16T06:46:19;13.10;99.90
30628;DHT22;17394;50.890;4.724;2022-10-16T06:48:45;13.10;99.90
30628;DHT22;17394;50.890;4.724;2022-10-16T06:51:15;13.10;99.90
30628;DHT22;17394;50.890;4.724;2022-10-16T06:53:46;13.10;99.90
30628;DHT22;17394;50.890;4.724;2022-10-16T06:56:27;13.10;99.90
30628;DHT22;17394;50.890;4.724;2022-10-16T06:58:54;13.10;99.90
30628;DHT22;17394;50.890;4.724;2022-10-16T07:01:23;13.20;99.90
30628;DHT22;17394;50.890;4.724;2022-10-16T07:03:50;13.20;99.90
30628;DHT22;17394;50.890;4.724;2022-10-16T07:06:20;13.20;99.90
30628;DHT22;17394;50.890;4.724;2022-10-16T07:08:48;13.30;99.90
30628;DHT22;17394;50.890;4.724;2022-10-16T07:11:19;13.30;99.90
30628;DHT22;17394;50.890;4.724;2022-10-16T07:13:47;13.40;99.90
30628;DHT22;17394;50.890;4.724;2022-10-16T07:16:20;13.40;99.90
30628;DHT22;17394;50.890;4.724;2022-10-16T07:18:47;13.50;99.90
30628;DHT22;17394;50.890;4.724;2022-10-16T07:21:20;13.60;99.90
30628;DHT22;17394;50.890;4.724;2022-10-16T07:24:12;13.60;99.90
30628;DHT22;17394;50.890;4.724;2022-10-16T07:26:40;13.70;99.90
30628;DHT22;17394;50.890;4.724;2022-10-16T07:29:16;13.80;99.90
30628;DHT22;17394;50.890;4.724;2022-10-16T07:31:43;13.80;99.90
30628;DHT22;17394;50.890;4.724;2022-10-16T07:34:13;13.90;99.90
30628;DHT22;17394;50.890;4.724;2022-10-16T07:36:40;13.90;99.90
30628;DHT22;17394;50.890;4.724;2022-10-16T07:39:06;14.00;99.90
30628;DHT22;17394;50.890;4.724;2022-10-16T07:41:32;14.00;99.90
30628;DHT22;17394;50.890;4.724;2022-10-16T07:44:03;14.10;99.90
30628;DHT22;17394;50.890;4.724;2022-10-16T07:46:30;14.20;99.90
30628;DHT22;17394;50.890;4.724;2022-10-16T07:48:56;14.30;99.90
30628;DHT22;17394;50.890;4.724;2022-10-16T07:51:25;14.40;99.90
30628;DHT22;17394;50.890;4.724;2022-10-16T07:53:52;14.60;99.90
30628;DHT22;17394;50.890;4.724;2022-10-16T07:56:23;14.70;99.90
30628;DHT22;17394;50.890;4.724;2022-10-16T07:58:51;14.80;99.90
30628;DHT22;17394;50.890;4.724;2022-10-16T08:01:18;14.90;99.90
30628;DHT22;17394;50.890;4.724;2022-10-16T08:03:48;15.00;99.90
30628;DHT22;17394;50.890;4.724;2022-10-16T08:06:15;15.00;99.90
30628;DHT22;17394;50.890;4.724;2022-10-16T08:08:42;15.20;99.90
30628;DHT22;17394;50.890;4.724;2022-10-16T08:11:09;15.30;99.90
30628;DHT22;17394;50.890;4.724;2022-10-16T08:13:36;15.30;99.90
30628;DHT22;17394;50.890;4.724;2022-10-16T08:16:04;15.40;99.90
30628;DHT22;17394;50.890;4.724;2022-10-16T08:18:40;15.50;99.90
30628;DHT22;17394;50.890;4.724;2022-10-16T08:21:14;15.50;99.90
30628;DHT22;17394;50.890;4.724;2022-10-16T08:23:40;15.60;99.90
30628;DHT22;17394;50.890;4.724;2022-10-16T08:26:08;15.70;99.90
30628;DHT22;17394;50.890;4.724;2022-10-16T08:28:36;15.80;99.90
30628;DHT22;17394;50.890;4.724;2022-10-16T08:31:16;15.90;99.90
30628;DHT22;17394;50.890;4.724;2022-10-16T08:33:45;15.90;99.90
30628;DHT22;17394;50.890;4.724;2022-10-16T08:36:14;16.00;99.90
30628;DHT22;17394;50.890;4.724;2022-10-16T08:38:40;16.10;99.90
30628;DHT22;17394;50.890;4.724;2022-10-16T08:44:07;16.20;99.90
30628;DHT22;17394;50.890;4.724;2022-10-16T08:49:31;16.50;99.90
30628;DHT22;17394;50.890;4.724;2022-10-16T08:51:58;16.50;99.90
30628;DHT22;17394;50.890;4.724;2022-10-16T08:54:39;16.70;99.90
30628;DHT22;17394;50.890;4.724;2022-10-16T08:57:21;16.90;99.90
30628;DHT22;17394;50.890;4.724;2022-10-16T08:59:47;17.00;99.90
30628;DHT22;17394;50.890;4.724;2022-10-16T09:02:29;17.00;99.90
30628;DHT22;17394;50.890;4.724;2022-10-16T09:08:23;17.00;99.90
30628;DHT22;17394;50.890;4.724;2022-10-16T09:11:49;17.20;99.90
30628;DHT22;17394;50.890;4.724;2022-10-16T09:20:53;17.50;99.90
30628;DHT22;17394;50.890;4.724;2022-10-16T09:23:30;17.50;99.90
30628;DHT22;17394;50.890;4.724;2022-10-16T09:25:59;17.50;99.90
30628;DHT22;17394;50.890;4.724;2022-10-16T09:28:26;17.60;99.90
30628;DHT22;17394;50.890;4.724;2022-10-16T09:30:52;17.60;99.90
30628;DHT22;17394;50.890;4.724;2022-10-16T09:33:25;17.70;99.90
30628;DHT22;17394;50.890;4.724;2022-10-16T09:35:56;17.90;99.90
30628;DHT22;17394;50.890;4.724;2022-10-16T09:38:33;17.90;99.90
30628;DHT22;17394;50.890;4.724;2022-10-16T09:41:21;18.00;99.90
30628;DHT22;17394;50.890;4.724;2022-10-16T09:43:59;18.20;99.90
30628;DHT22;17394;50.890;4.724;2022-10-16T09:46:36;18.30;99.90
30628;DHT22;17394;50.890;4.724;2022-10-16T09:49:21;18.30;99.90
30628;DHT22;17394;50.890;4.724;2022-10-16T09:51:48;18.40;99.90
30628;DHT22;17394;50.890;4.724;2022-10-16T09:54:17;18.40;99.90
30628;DHT22;17394;50.890;4.724;2022-10-16T09:56:44;18.50;99.90
30628;DHT22;17394;50.890;4.724;2022-10-16T09:59:21;18.50;99.90
30628;DHT22;17394;50.890;4.724;2022-10-16T10:01:54;18.60;99.90
30628;DHT22;17394;50.890;4.724;2022-10-16T10:04:24;18.70;99.90
30628;DHT22;17394;50.890;4.724;2022-10-16T10:06:58;18.70;99.90
30628;DHT22;17394;50.890;4.724;2022-10-16T10:09:39;18.70;99.90
30628;DHT22;17394;50.890;4.724;2022-10-16T10:12:24;18.70;99.90
30628;DHT22;17394;50.890;4.724;2022-10-16T10:15:06;18.70;99.90
30628;DHT22;17394;50.890;4.724;2022-10-16T10:17:32;18.90;99.90
30628;DHT22;17394;50.890;4.724;2022-10-16T10:20:29;19.00;99.90
30628;DHT22;17394;50.890;4.724;2022-10-16T10:22:57;19.00;99.90
30628;DHT22;17394;50.890;4.724;2022-10-16T10:25:51;19.00;99.90
30628;DHT22;17394;50.890;4.724;2022-10-16T10:34:26;19.00;99.90
30628;DHT22;17394;50.890;4.724;2022-10-16T10:37:40;19.10;99.90
30628;DHT22;17394;50.890;4.724;2022-10-16T10:55:21;19.30;99.90
30628;DHT22;17394;50.890;4.724;2022-10-16T11:01:15;19.30;99.90
30628;DHT22;17394;50.890;4.724;2022-10-16T11:04:33;19.40;99.90
30628;DHT22;17394;50.890;4.724;2022-10-16T11:07:16;19.40;99.90
30628;DHT22;17394;50.890;4.724;2022-10-16T11:09:57;19.60;99.90
30628;DHT22;17394;50.890;4.724;2022-10-16T11:12:44;19.50;99.90
30628;DHT22;17394;50.890;4.724;2022-10-16T11:15:29;19.30;99.90
30628;DHT22;17394;50.890;4.724;2022-10-16T11:18:11;19.00;99.90
30628;DHT22;17394;50.890;4.724;2022-10-16T11:26:19;18.40;99.90
30628;DHT22;17394;50.890;4.724;2022-10-16T11:28:51;18.30;99.90
30628;DHT22;17394;50.890;4.724;2022-10-16T11:31:47;18.20;99.90
30628;DHT22;17394;50.890;4.724;2022-10-16T11:39:30;18.60;99.90
30628;DHT22;17394;50.890;4.724;2022-10-16T11:42:22;18.80;99.90
30628;DHT22;17394;50.890;4.724;2022-10-16T11:45:24;18.80;99.90
30628;DHT22;17394;50.890;4.724;2022-10-16T11:48:17;18.80;99.90
30628;DHT22;17394;50.890;4.724;2022-10-16T11:54:24;18.60;99.90
30628;DHT22;17394;50.890;4.724;2022-10-16T11:57:05;18.70;99.90
30628;DHT22;17394;50.890;4.724;2022-10-16T11:59:54;18.60;99.90
30628;DHT22;17394;50.890;4.724;2022-10-16T12:08:53;18.50;99.90
30628;DHT22;17394;50.890;4.724;2022-10-16T12:16:57;18.60;99.90
30628;DHT22;17394;50.890;4.724;2022-10-16T12:19:29;18.70;99.90
30628;DHT22;17394;50.890;4.724;2022-10-16T12:22:03;18.80;99.90
30628;DHT22;17394;50.890;4.724;2022-10-16T12:24:44;18.90;99.90
30628;DHT22;17394;50.890;4.724;2022-10-16T12:27:30;19.10;99.90
30628;DHT22;17394;50.890;4.724;2022-10-16T12:30:06;19.20;99.90
30628;DHT22;17394;50.890;4.724;2022-10-16T12:32:39;19.30;99.90
30628;DHT22;17394;50.890;4.724;2022-10-16T12:35:23;19.40;99.90
30628;DHT22;17394;50.890;4.724;2022-10-16T12:37:51;19.40;99.90
30628;DHT22;17394;50.890;4.724;2022-10-16T12:40:31;19.50;99.90
30628;DHT22;17394;50.890;4.724;2022-10-16T12:42:58;19.50;99.90
30628;DHT22;17394;50.890;4.724;2022-10-16T12:45:31;19.50;99.90
30628;DHT22;17394;50.890;4.724;2022-10-16T12:48:00;19.50;99.90
30628;DHT22;17394;50.890;4.724;2022-10-16T12:50:37;19.60;99.90
30628;DHT22;17394;50.890;4.724;2022-10-16T12:53:25;19.60;99.90
30628;DHT22;17394;50.890;4.724;2022-10-16T12:56:09;19.70;99.90
30628;DHT22;17394;50.890;4.724;2022-10-16T12:59:13;19.70;99.90
30628;DHT22;17394;50.890;4.724;2022-10-16T13:11:39;19.60;99.90
30628;DHT22;17394;50.890;4.724;2022-10-16T13:17:12;19.50;99.90
30628;DHT22;17394;50.890;4.724;2022-10-16T13:28:06;19.70;99.90
30628;DHT22;17394;50.890;4.724;2022-10-16T13:30:52;19.80;99.90
30628;DHT22;17394;50.890;4.724;2022-10-16T13:33:42;19.80;99.90
30628;DHT22;17394;50.890;4.724;2022-10-16T13:36:25;19.80;99.90
30628;DHT22;17394;50.890;4.724;2022-10-16T13:39:13;19.70;99.90
30628;DHT22;17394;50.890;4.724;2022-10-16T13:41:40;19.70;99.90
30628;DHT22;17394;50.890;4.724;2022-10-16T13:44:20;19.60;99.90
30628;DHT22;17394;50.890;4.724;2022-10-16T13:46:47;19.70;99.90
30628;DHT22;17394;50.890;4.724;2022-10-16T13:49:23;19.70;99.90
30628;DHT22;17394;50.890;4.724;2022-10-16T13:51:59;19.80;99.90
30628;DHT22;17394;50.890;4.724;2022-10-16T13:54:27;19.90;99.90
30628;DHT22;17394;50.890;4.724;2022-10-16T13:57:05;19.90;99.90
30628;DHT22;17394;50.890;4.724;2022-10-16T13:59:37;19.90;99.90
30628;DHT22;17394;50.890;4.724;2022-10-16T14:02:40;19.70;99.90
30628;DHT22;17394;50.890;4.724;2022-10-16T14:05:10;19.60;99.90
30628;DHT22;17394;50.890;4.724;2022-10-16T14:07:37;19.50;99.90
30628;DHT22;17394;50.890;4.724;2022-10-16T14:10:24;19.50;99.90
30628;DHT22;17394;50.890;4.724;2022-10-16T14:13:05;19.40;99.90
30628;DHT22;17394;50.890;4.724;2022-10-16T14:15:35;19.40;99.90
30628;DHT22;17394;50.890;4.724;2022-10-16T14:18:03;19.50;99.90
30628;DHT22;17394;50.890;4.724;2022-10-16T14:20:34;19.50;99.90
30628;DHT22;17394;50.890;4.724;2022-10-16T14:23:28;19.50;99.90
30628;DHT22;17394;50.890;4.724;2022-10-16T14:26:17;19.50;99.90
30628;DHT22;17394;50.890;4.724;2022-10-16T14:28:48;19.40;99.90
30628;DHT22;17394;50.890;4.724;2022-10-16T14:31:32;19.40;99.90
30628;DHT22;17394;50.890;4.724;2022-10-16T14:33:59;19.40;99.90
30628;DHT22;17394;50.890;4.724;2022-10-16T14:36:28;19.30;99.90
30628;DHT22;17394;50.890;4.724;2022-10-16T14:39:04;19.30;99.90
30628;DHT22;17394;50.890;4.724;2022-10-16T14:41:43;19.40;99.90
30628;DHT22;17394;50.890;4.724;2022-10-16T14:44:12;19.30;99.90
30628;DHT22;17394;50.890;4.724;2022-10-16T14:46:43;19.40;99.90
30628;DHT22;17394;50.890;4.724;2022-10-16T14:51:39;19.40;99.90
30628;DHT22;17394;50.890;4.724;2022-10-16T14:54:16;19.40;99.90
30628;DHT22;17394;50.890;4.724;2022-10-16T14:56:49;19.40;99.90
30628;DHT22;17394;50.890;4.724;2022-10-16T14:59:41;19.40;99.90
30628;DHT22;17394;50.890;4.724;2022-10-16T15:02:33;19.40;99.90
30628;DHT22;17394;50.890;4.724;2022-10-16T15:05:25;19.30;99.90
30628;DHT22;17394;50.890;4.724;2022-10-16T15:07:55;19.30;99.90
30628;DHT22;17394;50.890;4.724;2022-10-16T15:10:25;19.20;99.90
30628;DHT22;17394;50.890;4.724;2022-10-16T15:12:52;19.20;99.90
30628;DHT22;17394;50.890;4.724;2022-10-16T15:15:41;19.10;99.90
30628;DHT22;17394;50.890;4.724;2022-10-16T15:18:08;19.10;99.90
30628;DHT22;17394;50.890;4.724;2022-10-16T15:20:37;19.00;99.90
30628;DHT22;17394;50.890;4.724;2022-10-16T15:23:16;18.90;99.90
30628;DHT22;17394;50.890;4.724;2022-10-16T15:25:54;18.90;99.90
30628;DHT22;17394;50.890;4.724;2022-10-16T15:28:23;18.90;99.90
30628;DHT22;17394;50.890;4.724;2022-10-16T15:30:55;18.80;99.90
30628;DHT22;17394;50.890;4.724;2022-10-16T15:33:27;18.80;99.90
30628;DHT22;17394;50.890;4.724;2022-10-16T15:35:55;18.80;99.90
30628;DHT22;17394;50.890;4.724;2022-10-16T15:38:23;18.70;99.90
30628;DHT22;17394;50.890;4.724;2022-10-16T15:40:50;18.70;99.90
30628;DHT22;17394;50.890;4.724;2022-10-16T15:43:17;18.60;99.90
30628;DHT22;17394;50.890;4.724;2022-10-16T15:46:01;18.60;99.90
30628;DHT22;17394;50.890;4.724;2022-10-16T15:48:29;18.50;99.90
30628;DHT22;17394;50.890;4.724;2022-10-16T15:50:56;18.40;99.90
30628;DHT22;17394;50.890;4.724;2022-10-16T15:53:22;18.30;99.90
30628;DHT22;17394;50.890;4.724;2022-10-16T15:55:49;18.30;99.90
30628;DHT22;17394;50.890;4.724;2022-10-16T15:58:15;18.20;99.90
30628;DHT22;17394;50.890;4.724;2022-10-16T16:00:42;18.10;99.90
30628;DHT22;17394;50.890;4.724;2022-10-16T16:03:08;18.00;99.90
30628;DHT22;17394;50.890;4.724;2022-10-16T16:05:41;18.00;99.90
30628;DHT22;17394;50.890;4.724;2022-10-16T16:08:07;17.90;99.90
30628;DHT22;17394;50.890;4.724;2022-10-16T16:10:37;17.90;99.90
30628;DHT22;17394;50.890;4.724;2022-10-16T16:13:03;17.80;99.90
30628;DHT22;17394;50.890;4.724;2022-10-16T16:15:29;17.70;99.90
30628;DHT22;17394;50.890;4.724;2022-10-16T16:17:55;17.70;99.90
30628;DHT22;17394;50.890;4.724;2022-10-16T16:20:23;17.60;99.90
30628;DHT22;17394;50.890;4.724;2022-10-16T16:22:49;17.60;99.90
30628;DHT22;17394;50.890;4.724;2022-10-16T16:25:15;17.50;99.90
30628;DHT22;17394;50.890;4.724;2022-10-16T16:27:41;17.50;99.90
30628;DHT22;17394;50.890;4.724;2022-10-16T16:30:10;17.50;99.90
30628;DHT22;17394;50.890;4.724;2022-10-16T16:32:37;17.40;99.90
30628;DHT22;17394;50.890;4.724;2022-10-16T16:35:04;17.40;99.90
30628;DHT22;17394;50.890;4.724;2022-10-16T16:37:31;17.30;99.90
30628;DHT22;17394;50.890;4.724;2022-10-16T16:39:57;17.20;99.90
30628;DHT22;17394;50.890;4.724;2022-10-16T16:42:27;17.20;99.90
30628;DHT22;17394;50.890;4.724;2022-10-16T16:44:54;17.10;99.90
30628;DHT22;17394;50.890;4.724;2022-10-16T16:47:20;17.10;99.90
30628;DHT22;17394;50.890;4.724;2022-10-16T16:49:47;17.00;99.90
30628;DHT22;17394;50.890;4.724;2022-10-16T16:52:15;17.00;99.90
30628;DHT22;17394;50.890;4.724;2022-10-16T16:54:41;16.90;99.90
30628;DHT22;17394;50.890;4.724;2022-10-16T16:57:07;16.90;99.90
30628;DHT22;17394;50.890;4.724;2022-10-16T16:59:33;16.80;99.90
30628;DHT22;17394;50.890;4.724;2022-10-16T17:02:00;16.70;99.90
30628;DHT22;17394;50.890;4.724;2022-10-16T17:04:27;16.70;99.90
30628;DHT22;17394;50.890;4.724;2022-10-16T17:06:56;16.70;99.90
30628;DHT22;17394;50.890;4.724;2022-10-16T17:09:23;16.70;99.90
30628;DHT22;17394;50.890;4.724;2022-10-16T17:11:49;16.60;99.90
30628;DHT22;17394;50.890;4.724;2022-10-16T17:14:15;16.60;99.90
30628;DHT22;17394;50.890;4.724;2022-10-16T17:16:42;16.60;99.90
30628;DHT22;17394;50.890;4.724;2022-10-16T17:19:15;16.60;99.90
30628;DHT22;17394;50.890;4.724;2022-10-16T17:21:49;16.70;99.90
30628;DHT22;17394;50.890;4.724;2022-10-16T17:24:16;16.70;99.90
30628;DHT22;17394;50.890;4.724;2022-10-16T17:26:45;16.70;99.90
30628;DHT22;17394;50.890;4.724;2022-10-16T17:29:15;16.60;99.90
30628;DHT22;17394;50.890;4.724;2022-10-16T17:31:45;16.50;99.90
30628;DHT22;17394;50.890;4.724;2022-10-16T17:34:15;16.40;99.90
30628;DHT22;17394;50.890;4.724;2022-10-16T17:36:44;16.40;99.90
30628;DHT22;17394;50.890;4.724;2022-10-16T17:39:15;16.30;99.90